createdAt,value
2023-04-04T00:00:40.009Z,82.15
2023-04-04T00:03:07.159Z,82.54
2023-04-04T00:05:35.805Z,82.61
2023-04-04T00:08:03.849Z,82.84
2023-04-04T00:10:30.598Z,83.09
2023-04-04T00:12:57.319Z,82.97
2023-04-04T00:15:23.996Z,82.93
2023-04-04T00:17:50.799Z,83.05
2023-04-04T00:20:17.676Z,82.86
2023-04-04T00:22:45.028Z,83.01
2023-04-04T00:25:12.310Z,82.58
2023-04-04T00:27:39.026Z,82.53
2023-04-04T00:30:06.798Z,82.21
2023-04-04T00:32:33.589Z,82.03
2023-04-04T00:35:00.558Z,81.78
2023-04-04T00:37:28.045Z,81.62
2023-04-04T00:39:54.778Z,81.32
2023-04-04T00:42:21.452Z,81.39
2023-04-04T00:44:48.626Z,80.96
2023-04-04T00:47:15.563Z,81.08
2023-04-04T00:49:42.238Z,80.67
2023-04-04T00:52:09.034Z,80.65
2023-04-04T00:54:36.009Z,80.70
2023-04-04T00:57:04.442Z,80.58
2023-04-04T00:59:32.333Z,80.68
2023-04-04T01:02:00.759Z,80.74
2023-04-04T01:04:29.456Z,80.62
2023-04-04T01:06:56.925Z,80.69
2023-04-04T01:09:23.753Z,80.58
2023-04-04T01:11:50.863Z,80.79
2023-04-04T01:14:17.527Z,80.87
2023-04-04T01:16:45.571Z,80.69
2023-04-04T01:19:22.375Z,80.68
2023-04-04T01:21:49.571Z,80.69
2023-04-04T01:24:17.642Z,80.53
2023-04-04T01:26:44.608Z,80.74
2023-04-04T01:29:11.483Z,80.70
2023-04-04T01:31:41.896Z,80.66
2023-04-04T01:34:08.629Z,80.72
2023-04-04T01:36:53.659Z,80.82
2023-04-04T01:39:28.326Z,80.91
2023-04-04T01:41:58.444Z,80.61
2023-04-04T01:44:26.522Z,80.54
2023-04-04T01:46:56.355Z,80.77
2023-04-04T01:49:23.559Z,80.63
2023-04-04T01:51:52.725Z,80.85
2023-04-04T01:54:19.364Z,80.52
2023-04-04T01:56:46.549Z,80.45
2023-04-04T01:59:13.488Z,80.36
2023-04-04T02:01:40.196Z,80.73
2023-04-04T02:04:07.483Z,80.40
2023-04-04T02:06:34.144Z,80.60
2023-04-04T02:09:01.106Z,80.34
2023-04-04T02:11:27.819Z,80.67
2023-04-04T02:13:54.439Z,80.68
2023-04-04T02:16:21.517Z,80.84
2023-04-04T02:18:48.295Z,80.81
2023-04-04T02:21:15.005Z,80.92
2023-04-04T02:23:41.695Z,80.95
2023-04-04T02:26:08.313Z,80.82
2023-04-04T02:28:35.102Z,81.14
2023-04-04T02:31:02.997Z,81.16
2023-04-04T02:33:30.098Z,81.13
2023-04-04T02:35:58.874Z,81.10
2023-04-04T02:38:26.310Z,81.04
2023-04-04T02:40:53.363Z,81.55
2023-04-04T02:43:20.083Z,81.40
2023-04-04T02:45:49.534Z,81.49
2023-04-04T02:48:16.450Z,81.61
2023-04-04T02:50:43.763Z,81.59
2023-04-04T02:53:10.560Z,81.83
2023-04-04T02:55:37.187Z,82.30
2023-04-04T02:58:03.952Z,82.36
2023-04-04T03:00:37.446Z,82.48
2023-04-04T03:03:05.533Z,82.39
2023-04-04T03:05:32.732Z,82.89
2023-04-04T03:07:59.908Z,82.79
2023-04-04T03:10:30.011Z,82.83
2023-04-04T03:12:57.503Z,82.98
2023-04-04T03:15:24.310Z,83.02
2023-04-04T03:20:18.919Z,83.01
2023-04-04T03:22:45.612Z,83.05
2023-04-04T03:25:12.416Z,83.11
2023-04-04T03:27:39.936Z,82.88
2023-04-04T03:30:08.445Z,82.74
2023-04-04T03:32:36.499Z,82.78
2023-04-04T03:35:03.574Z,82.81
2023-04-04T03:37:30.590Z,82.54
2023-04-04T03:39:58.302Z,82.46
2023-04-04T03:42:26.108Z,82.39
2023-04-04T03:44:56.364Z,82.21
2023-04-04T03:47:23.048Z,82.40
2023-04-04T03:49:51.598Z,82.30
2023-04-04T03:52:18.815Z,82.15
2023-04-04T03:54:46.177Z,82.09
2023-04-04T03:57:12.878Z,82.10
2023-04-04T03:59:39.760Z,82.10
2023-04-04T04:02:06.926Z,82.16
2023-04-04T04:04:33.714Z,82.10
2023-04-04T04:07:00.958Z,81.97
2023-04-04T04:09:27.615Z,82.06
2023-04-04T04:11:54.329Z,82.10
2023-04-04T04:14:21.003Z,82.11
2023-04-04T04:16:47.874Z,82.19
2023-04-04T04:19:14.527Z,82.28
2023-04-04T04:21:42.703Z,82.32
2023-04-04T04:24:09.694Z,82.25
2023-04-04T04:26:36.462Z,82.49
2023-04-04T04:29:03.341Z,82.50
2023-04-04T04:31:30.118Z,82.66
2023-04-04T04:33:57.013Z,82.81
2023-04-04T04:36:23.866Z,82.78
2023-04-04T04:38:50.755Z,82.85
2023-04-04T04:41:17.430Z,82.77
2023-04-04T04:43:44.065Z,82.49
2023-04-04T04:46:10.830Z,82.98
2023-04-04T04:48:37.582Z,82.88
2023-04-04T04:51:04.399Z,82.88
2023-04-04T04:53:31.476Z,82.89
2023-04-04T04:55:58.168Z,82.88
2023-04-04T04:58:26.916Z,82.97
2023-04-04T05:00:57.908Z,83.13
2023-04-04T05:03:25.118Z,83.14
2023-04-04T05:05:52.132Z,83.12
2023-04-04T05:08:19.052Z,83.24
2023-04-04T05:10:45.776Z,83.25
2023-04-04T05:13:12.612Z,83.57
2023-04-04T05:15:39.301Z,83.32
2023-04-04T05:18:06.054Z,83.45
2023-04-04T05:20:33.508Z,83.71
2023-04-04T05:23:00.163Z,83.57
2023-04-04T05:25:27.738Z,83.71
2023-04-04T05:27:58.980Z,83.77
2023-04-04T05:30:25.892Z,83.66
2023-04-04T05:32:52.755Z,83.71
2023-04-04T05:35:19.586Z,83.77
2023-04-04T05:37:46.554Z,83.98
2023-04-04T05:40:13.354Z,83.88
2023-04-04T05:42:40.064Z,83.91
2023-04-04T05:45:07.380Z,83.85
2023-04-04T05:47:34.070Z,83.98
2023-04-04T05:50:01.161Z,83.73
2023-04-04T05:52:28.050Z,83.70
2023-04-04T05:54:54.903Z,83.63
2023-04-04T05:57:22.955Z,83.59
2023-04-04T05:59:50.174Z,83.42
2023-04-04T06:02:17.535Z,83.37
2023-04-04T06:04:45.655Z,83.55
2023-04-04T06:07:12.278Z,83.55
2023-04-04T06:09:38.902Z,83.64
2023-04-04T06:12:05.675Z,83.46
2023-04-04T06:14:32.498Z,83.50
2023-04-04T06:16:59.340Z,83.58
2023-04-04T06:19:26.940Z,83.71
2023-04-04T06:21:53.600Z,83.82
2023-04-04T06:24:20.440Z,83.76
2023-04-04T06:26:51.420Z,83.77
2023-04-04T06:29:18.591Z,83.80
2023-04-04T06:31:45.487Z,83.99
2023-04-04T06:34:12.292Z,84.03
2023-04-04T06:36:38.954Z,84.04
2023-04-04T06:39:05.723Z,84.04
2023-04-04T06:41:32.457Z,84.05
2023-04-04T06:43:59.169Z,84.24
2023-04-04T06:46:27.153Z,84.13
2023-04-04T06:48:54.933Z,84.20
2023-04-04T06:51:23.309Z,84.39
2023-04-04T06:53:50.222Z,84.17
2023-04-04T06:56:16.976Z,84.41
2023-04-04T06:58:43.735Z,84.50
2023-04-04T07:01:10.443Z,84.73
2023-04-04T07:03:37.522Z,84.55
2023-04-04T07:06:06.642Z,84.66
2023-04-04T07:08:35.955Z,84.68
2023-04-04T07:11:03.306Z,84.89
2023-04-04T07:13:29.975Z,84.89
2023-04-04T07:15:57.177Z,84.98
2023-04-04T07:18:23.913Z,85.08
2023-04-04T07:20:50.526Z,85.29
2023-04-04T07:23:17.222Z,85.31
2023-04-04T07:25:45.046Z,85.29
2023-04-04T07:28:13.529Z,85.43
2023-04-04T07:30:40.798Z,85.37
2023-04-04T07:33:08.111Z,85.48
2023-04-04T07:35:35.503Z,85.44
2023-04-04T07:38:03.098Z,85.54
2023-04-04T07:40:30.189Z,85.44
2023-04-04T07:42:57.558Z,85.50
2023-04-04T07:45:24.280Z,85.60
2023-04-04T07:47:51.152Z,85.45
2023-04-04T07:50:18.115Z,85.33
2023-04-04T07:52:51.388Z,85.15
2023-04-04T07:55:19.597Z,85.20
2023-04-04T07:57:47.323Z,84.98
2023-04-04T08:00:14.721Z,85.09
2023-04-04T08:02:44.554Z,85.08
2023-04-04T08:05:11.278Z,85.14
2023-04-04T08:07:38.102Z,85.07
2023-04-04T08:10:06.243Z,85.02
2023-04-04T08:12:33.257Z,85.05
2023-04-04T08:14:59.891Z,85.18
2023-04-04T08:17:26.647Z,85.08
2023-04-04T08:19:53.317Z,85.12
2023-04-04T08:22:20.172Z,85.12
2023-04-04T08:24:46.819Z,85.08
2023-04-04T08:27:15.063Z,84.94
2023-04-04T08:29:42.013Z,85.14
2023-04-04T08:32:09.576Z,85.26
2023-04-04T08:34:36.487Z,85.00
2023-04-04T08:37:03.195Z,84.93
2023-04-04T08:39:29.955Z,84.90
2023-04-04T08:42:07.747Z,84.97
2023-04-04T08:44:35.656Z,84.91
2023-04-04T08:47:08.487Z,84.61
2023-04-04T08:49:38.547Z,84.44
2023-04-04T08:52:07.579Z,84.26
2023-04-04T08:54:35.726Z,84.16
2023-04-04T08:57:02.577Z,83.89
2023-04-04T08:59:29.473Z,84.08
2023-04-04T09:02:14.555Z,83.99
2023-04-04T09:04:48.707Z,83.78
2023-04-04T09:07:22.888Z,83.71
2023-04-04T09:09:51.030Z,83.66
2023-04-04T09:12:18.977Z,83.47
2023-04-04T09:14:47.716Z,83.31
2023-04-04T09:17:14.393Z,83.52
2023-04-04T09:19:41.045Z,83.24
2023-04-04T09:22:09.306Z,82.99
2023-04-04T09:24:40.771Z,82.69
2023-04-04T09:27:12.158Z,82.42
2023-04-04T09:29:39.753Z,82.22
2023-04-04T09:32:10.702Z,82.12
2023-04-04T09:34:37.950Z,81.78
2023-04-04T09:37:07.050Z,81.57
2023-04-04T09:39:34.832Z,81.39
2023-04-04T09:42:02.160Z,81.06
2023-04-04T09:44:33.341Z,80.71
2023-04-04T09:50:02.174Z,80.29
2023-04-04T09:52:33.286Z,79.94
2023-04-04T09:55:02.213Z,79.57
2023-04-04T09:57:34.861Z,79.21
2023-04-04T10:00:09.549Z,78.76
2023-04-04T10:02:47.026Z,78.31
2023-04-04T10:05:14.643Z,78.09
2023-04-04T10:07:43.693Z,78.03
2023-04-04T10:10:11.142Z,77.71
2023-04-04T10:12:38.929Z,77.18
2023-04-04T10:15:06.185Z,77.20
2023-04-04T10:17:41.054Z,77.23
2023-04-04T10:20:09.387Z,76.91
2023-04-04T10:22:37.907Z,76.68
2023-04-04T10:25:05.977Z,76.67
2023-04-04T10:27:34.360Z,76.53
2023-04-04T10:30:01.558Z,76.22
2023-04-04T10:32:35.882Z,76.15
2023-04-04T10:35:10.928Z,75.78
2023-04-04T10:37:51.568Z,75.50
2023-04-04T10:40:21.411Z,75.33
2023-04-04T10:42:50.900Z,74.92
2023-04-04T10:45:21.713Z,75.02
2023-04-04T10:47:49.397Z,74.57
2023-04-04T10:50:16.380Z,74.40
2023-04-04T10:52:44.610Z,73.76
2023-04-04T10:55:15.917Z,73.30
2023-04-04T10:57:55.201Z,73.33
2023-04-04T11:00:26.303Z,72.91
2023-04-04T11:02:53.156Z,72.76
2023-04-04T11:05:32.945Z,72.26
2023-04-04T11:08:08.333Z,71.82
2023-04-04T11:10:38.018Z,71.39
2023-04-04T11:13:16.339Z,71.36
2023-04-04T11:15:56.900Z,70.98
2023-04-04T11:18:34.321Z,70.69
2023-04-04T11:21:08.132Z,70.37
2023-04-04T11:24:13.363Z,70.50
2023-04-04T11:26:42.827Z,70.16
2023-04-04T11:29:14.374Z,69.90
2023-04-04T11:31:45.563Z,69.73
2023-04-04T11:34:13.825Z,69.54
2023-04-04T11:36:41.701Z,69.67
2023-04-04T11:39:31.326Z,69.63
2023-04-04T11:42:11.454Z,69.34
2023-04-04T11:45:00.034Z,69.15
2023-04-04T11:47:26.787Z,68.97
2023-04-04T11:49:54.151Z,69.01
2023-04-04T11:52:21.321Z,68.94
2023-04-04T11:54:49.126Z,68.47
2023-04-04T11:57:18.910Z,68.71
2023-04-04T11:59:48.809Z,68.59
2023-04-04T12:02:27.486Z,68.64
2023-04-04T12:04:55.524Z,68.36
2023-04-04T12:07:24.845Z,68.22
2023-04-04T12:09:52.246Z,68.13
2023-04-04T12:12:20.536Z,67.83
2023-04-04T12:14:47.776Z,67.83
2023-04-04T12:17:15.999Z,67.63
2023-04-04T12:19:43.663Z,67.28
2023-04-04T12:22:10.866Z,67.31
2023-04-04T12:24:37.933Z,66.80
2023-04-04T12:27:05.455Z,66.99
2023-04-04T12:29:42.686Z,66.91
2023-04-04T12:32:10.805Z,66.65
2023-04-04T12:34:46.977Z,66.68
2023-04-04T12:37:19.175Z,66.54
2023-04-04T12:39:51.113Z,66.44
2023-04-04T12:42:22.765Z,66.32
2023-04-04T12:44:52.196Z,66.43
2023-04-04T12:47:21.203Z,66.65
2023-04-04T12:49:48.841Z,66.59
2023-04-04T12:52:23.287Z,66.57
2023-04-04T12:57:27.631Z,66.54
2023-04-04T12:59:55.831Z,66.31
2023-04-04T13:02:23.733Z,66.00
2023-04-04T13:04:57.905Z,66.00
2023-04-04T13:07:25.909Z,65.74
2023-04-04T13:10:02.789Z,65.58
2023-04-04T13:12:59.645Z,65.30
2023-04-04T13:15:52.100Z,65.08
2023-04-04T13:18:24.652Z,64.97
2023-04-04T13:20:52.864Z,64.59
2023-04-04T13:23:20.423Z,64.38
2023-04-04T13:25:47.132Z,64.19
2023-04-04T13:28:14.394Z,63.42
2023-04-04T13:30:46.800Z,63.12
2023-04-04T13:33:13.829Z,62.98
2023-04-04T13:35:43.808Z,62.60
2023-04-04T13:38:11.771Z,62.32
2023-04-04T13:40:38.694Z,61.77
2023-04-04T13:43:05.495Z,61.96
2023-04-04T13:45:35.707Z,61.27
2023-04-04T13:48:02.965Z,61.08
2023-04-04T13:50:32.982Z,60.86
2023-04-04T13:52:59.736Z,60.49
2023-04-04T13:55:27.681Z,60.37
2023-04-04T13:57:54.562Z,60.22
2023-04-04T14:00:21.633Z,59.95
2023-04-04T14:02:53.480Z,59.80
2023-04-04T14:05:22.434Z,59.76
2023-04-04T14:07:50.788Z,59.78
2023-04-04T14:10:17.489Z,59.72
2023-04-04T14:12:44.601Z,59.61
2023-04-04T14:15:12.357Z,59.39
2023-04-04T14:17:39.039Z,59.35
2023-04-04T14:20:06.890Z,59.21
2023-04-04T14:22:34.148Z,59.10
2023-04-04T14:25:01.284Z,58.87
2023-04-04T14:27:28.022Z,58.47
2023-04-04T14:29:54.658Z,58.75
2023-04-04T14:32:21.496Z,59.40
2023-04-04T14:34:49.540Z,59.91
2023-04-04T14:37:17.696Z,60.31
2023-04-04T14:39:44.773Z,60.25
2023-04-04T14:42:12.556Z,60.36
2023-04-04T14:44:39.328Z,60.20
2023-04-04T14:47:06.018Z,59.78
2023-04-04T14:49:33.119Z,60.33
2023-04-04T14:51:59.810Z,60.66
2023-04-04T14:54:26.568Z,60.82
2023-04-04T14:56:53.220Z,60.93
2023-04-04T14:59:20.028Z,60.93
2023-04-04T15:01:47.025Z,60.22
2023-04-04T15:04:13.736Z,59.52
2023-04-04T15:06:40.506Z,59.04
2023-04-04T15:09:08.145Z,58.94
2023-04-04T15:11:35.985Z,58.48
2023-04-04T15:14:03.094Z,58.29
2023-04-04T15:16:33.154Z,58.16
2023-04-04T15:19:00.772Z,58.30
2023-04-04T15:21:28.621Z,58.65
2023-04-04T15:23:55.558Z,59.37
2023-04-04T15:26:22.946Z,59.90
2023-04-04T15:28:49.861Z,60.52
2023-04-04T15:31:17.069Z,60.87
2023-04-04T15:33:44.054Z,61.17
2023-04-04T15:36:11.145Z,60.55
2023-04-04T15:38:38.141Z,60.28
2023-04-04T15:41:08.150Z,59.81
2023-04-04T15:43:36.554Z,58.70
2023-04-04T15:46:03.297Z,58.33
2023-04-04T15:48:30.058Z,57.23
2023-04-04T15:51:02.388Z,56.98
2023-04-04T15:53:33.441Z,56.40
2023-04-04T15:56:02.048Z,56.17
2023-04-04T15:58:28.747Z,56.15
2023-04-04T16:00:56.121Z,55.92
2023-04-04T16:03:24.616Z,55.92
2023-04-04T16:05:51.311Z,56.31
2023-04-04T16:08:18.385Z,56.09
2023-04-04T16:10:45.088Z,56.13
2023-04-04T16:13:13.560Z,56.39
2023-04-04T16:15:40.434Z,56.25
2023-04-04T16:18:07.377Z,56.25
2023-04-04T16:20:34.264Z,56.29
2023-04-04T16:23:01.131Z,56.30
2023-04-04T16:25:27.928Z,56.21
2023-04-04T16:27:54.582Z,56.58
2023-04-04T16:30:21.345Z,56.59
2023-04-04T16:32:48.161Z,57.12
2023-04-04T16:35:15.635Z,57.16
2023-04-04T16:37:42.314Z,57.48
2023-04-04T16:40:09.524Z,57.82
2023-04-04T16:42:36.226Z,58.09
2023-04-04T16:45:02.976Z,58.26
2023-04-04T16:47:29.926Z,58.51
2023-04-04T16:49:57.702Z,58.71
2023-04-04T16:52:24.385Z,59.01
2023-04-04T16:54:51.105Z,59.32
2023-04-04T16:57:17.951Z,59.53
2023-04-04T16:59:45.700Z,59.78
2023-04-04T17:02:12.644Z,60.13
2023-04-04T17:04:41.726Z,60.15
2023-04-04T17:07:09.037Z,60.42
2023-04-04T17:09:35.955Z,60.47
2023-04-04T17:12:03.377Z,60.56
2023-04-04T17:14:30.448Z,60.96
2023-04-04T17:17:02.754Z,61.06
2023-04-04T17:19:31.695Z,61.10
2023-04-04T17:21:58.854Z,61.15
2023-04-04T17:24:27.458Z,61.41
2023-04-04T17:26:58.424Z,61.58
2023-04-04T17:29:27.062Z,62.05
2023-04-04T17:31:55.223Z,62.21
2023-04-04T17:34:22.554Z,62.09
2023-04-04T17:36:51.323Z,62.34
2023-04-04T17:39:17.998Z,62.37
2023-04-04T17:41:48.387Z,62.59
2023-04-04T17:44:16.049Z,62.70
2023-04-04T17:46:43.070Z,62.57
2023-04-04T17:49:09.888Z,62.93
2023-04-04T17:51:37.587Z,62.89
2023-04-04T17:54:05.189Z,63.02
2023-04-04T17:56:32.099Z,63.26
2023-04-04T17:58:58.998Z,63.28
2023-04-04T18:01:27.962Z,63.52
2023-04-04T18:03:55.070Z,63.72
2023-04-04T18:06:22.200Z,63.96
2023-04-04T18:08:48.863Z,63.77
2023-04-04T18:11:16.411Z,64.00
2023-04-04T18:13:44.169Z,64.14
2023-04-04T18:16:10.881Z,64.01
2023-04-04T18:18:39.285Z,64.32
2023-04-04T18:21:06.870Z,64.54
2023-04-04T18:23:33.587Z,64.73
2023-04-04T18:26:01.314Z,64.77
2023-04-04T18:28:27.948Z,65.02
2023-04-04T18:30:54.884Z,65.13
2023-04-04T18:33:22.223Z,65.32
2023-04-04T18:35:48.975Z,65.51
2023-04-04T18:38:15.636Z,65.66
2023-04-04T18:40:45.226Z,65.82
2023-04-04T18:43:12.248Z,65.99
2023-04-04T18:45:41.270Z,66.06
2023-04-04T18:48:08.843Z,66.04
2023-04-04T18:50:35.843Z,66.30
2023-04-04T18:53:02.562Z,66.49
2023-04-04T18:55:29.693Z,66.49
2023-04-04T18:57:57.574Z,66.67
2023-04-04T19:00:24.956Z,66.73
2023-04-04T19:02:51.791Z,66.97
2023-04-04T19:05:24.324Z,67.13
2023-04-04T19:07:54.585Z,67.12
2023-04-04T19:10:22.106Z,67.31
2023-04-04T19:12:49.268Z,67.31
2023-04-04T19:15:16.681Z,67.54
2023-04-04T19:17:43.382Z,67.61
2023-04-04T19:20:11.121Z,67.69
2023-04-04T19:22:37.734Z,67.56
2023-04-04T19:25:04.688Z,67.97
2023-04-04T19:27:31.368Z,67.96
2023-04-04T19:29:57.961Z,68.25
2023-04-04T19:32:27.585Z,68.46
2023-04-04T19:34:54.307Z,68.35
2023-04-04T19:37:21.009Z,68.71
2023-04-04T19:39:48.613Z,68.87
2023-04-04T19:42:15.414Z,69.24
2023-04-04T19:44:42.454Z,69.50
2023-04-04T19:47:18.151Z,69.98
2023-04-04T19:49:45.374Z,70.28
2023-04-04T19:52:14.213Z,70.61
2023-04-04T19:54:43.008Z,70.79
2023-04-04T19:57:20.064Z,71.29
2023-04-04T20:00:13.616Z,71.63
2023-04-04T20:02:52.689Z,71.97
2023-04-04T20:05:58.674Z,72.25
2023-04-04T20:08:35.751Z,72.48
2023-04-04T20:11:02.558Z,72.84
2023-04-04T20:13:30.137Z,73.27
2023-04-04T20:16:04.117Z,73.65
2023-04-04T20:18:33.122Z,74.01
2023-04-04T20:21:12.989Z,74.44
2023-04-04T20:23:57.885Z,74.79
2023-04-04T20:26:54.304Z,75.03
2023-04-04T20:29:25.175Z,75.10
2023-04-04T20:32:00.592Z,75.55
2023-04-04T20:34:42.805Z,75.97
2023-04-04T20:37:14.249Z,76.20
2023-04-04T20:39:46.206Z,75.85
2023-04-04T20:42:27.833Z,76.46
2023-04-04T20:44:56.052Z,76.86
2023-04-04T20:47:42.373Z,77.50
2023-04-04T20:50:19.104Z,77.61
2023-04-04T20:52:47.475Z,77.61
2023-04-04T20:55:14.289Z,78.04
2023-04-04T20:57:41.340Z,78.13
2023-04-04T21:00:29.216Z,78.65
2023-04-04T21:02:58.325Z,78.80
2023-04-04T21:05:30.190Z,79.12
2023-04-04T21:07:58.265Z,79.28
2023-04-04T21:10:51.462Z,79.89
2023-04-04T21:13:38.730Z,79.84
2023-04-04T21:16:14.515Z,80.01
2023-04-04T21:18:41.932Z,80.33
2023-04-04T21:21:21.221Z,80.78
2023-04-04T21:23:49.693Z,80.89
2023-04-04T21:26:43.670Z,81.22
2023-04-04T21:29:21.349Z,81.14
2023-04-04T21:31:50.321Z,81.33
2023-04-04T21:34:25.598Z,81.47
2023-04-04T21:37:00.978Z,81.61
2023-04-04T21:39:32.391Z,82.00
2023-04-04T21:42:06.925Z,82.10
2023-04-04T21:44:35.371Z,82.28
2023-04-04T21:47:01.997Z,82.60
2023-04-04T21:49:28.619Z,82.79
2023-04-04T21:51:55.368Z,82.68
2023-04-04T21:54:23.398Z,82.99
2023-04-04T21:56:50.047Z,83.27
2023-04-04T21:59:16.783Z,83.46
2023-04-04T22:01:43.498Z,83.57
2023-04-04T22:04:10.369Z,83.80
2023-04-04T22:06:37.157Z,83.92
2023-04-04T22:09:05.301Z,84.45
2023-04-04T22:11:35.024Z,84.33
2023-04-04T22:14:04.974Z,84.60
2023-04-04T22:16:37.104Z,84.82
2023-04-04T22:19:04.198Z,84.92
2023-04-04T22:21:36.325Z,85.22
2023-04-04T22:24:03.813Z,85.44
2023-04-04T22:26:33.489Z,85.38
2023-04-04T22:29:02.940Z,85.54
2023-04-04T22:31:30.206Z,85.68
2023-04-04T22:33:56.911Z,85.85
2023-04-04T22:36:26.554Z,85.88
2023-04-04T22:38:59.100Z,86.19
2023-04-04T22:41:28.275Z,86.34
2023-04-04T22:43:56.010Z,86.59
2023-04-04T22:46:23.145Z,86.65
2023-04-04T22:48:50.240Z,86.85
2023-04-04T22:51:16.935Z,87.00
2023-04-04T22:53:44.513Z,87.19
2023-04-04T22:56:11.567Z,87.35
2023-04-04T22:58:38.433Z,87.37
2023-04-04T23:01:05.780Z,87.71
2023-04-04T23:03:32.726Z,88.02
2023-04-04T23:05:59.378Z,88.02
2023-04-04T23:08:26.548Z,88.32
2023-04-04T23:10:53.229Z,88.28
2023-04-04T23:13:20.158Z,88.26
2023-04-04T23:15:46.787Z,88.47
2023-04-04T23:18:13.614Z,88.63
2023-04-04T23:20:41.863Z,88.67
2023-04-04T23:23:08.639Z,88.75
2023-04-04T23:25:35.317Z,88.25
2023-04-04T23:28:02.033Z,88.54
2023-04-04T23:30:29.065Z,88.68
2023-04-04T23:32:55.985Z,88.69
2023-04-04T23:35:22.699Z,88.93
2023-04-04T23:37:49.365Z,89.09
2023-04-04T23:40:16.129Z,89.27
2023-04-04T23:42:42.760Z,89.40
2023-04-04T23:45:10.305Z,89.69
2023-04-04T23:47:37.076Z,89.68
2023-04-04T23:50:04.181Z,89.58
2023-04-04T23:52:30.962Z,89.80
2023-04-04T23:54:57.575Z,90.01
2023-04-04T23:57:24.277Z,90.10
2023-04-04T23:59:50.870Z,90.35
